sensor_id;sensor_type;location;lat;lon;timestamp;pressure;altitude;pressure_sealevel;temperature;humidity
78717;BME280;68045;50.042;14.432;2023-12-20T00:03:49;97990.97;;;6.32;62.32
78717;BME280;68045;50.042;14.432;2023-12-20T00:07:49;97994.00;;;6.36;62.77
78717;BME280;68045;50.042;14.432;2023-12-20T00:11:52;97995.66;;;6.23;64.08
78717;BME280;68045;50.042;14.432;2023-12-20T00:15:53;97979.38;;;6.15;64.66
78717;BME280;68045;50.042;14.432;2023-12-20T00:19:55;97991.25;;;6.17;65.69
78717;BME280;68045;50.042;14.432;2023-12-20T00:23:56;97972.88;;;6.24;66.73
78717;BME280;68045;50.042;14.432;2023-12-20T00:27:56;97957.97;;;6.18;67.05
78717;BME280;68045;50.042;14.432;2023-12-20T00:31:57;97978.75;;;6.13;68.95
78717;BME280;68045;50.042;14.432;2023-12-20T00:35:58;97987.06;;;6.10;69.33
78717;BME280;68045;50.042;14.432;2023-12-20T00:39:59;97967.47;;;6.12;69.56
78717;BME280;68045;50.042;14.432;2023-12-20T00:44:00;97968.75;;;6.03;70.47
78717;BME280;68045;50.042;14.432;2023-12-20T00:48:01;97957.09;;;5.86;71.30
78717;BME280;68045;50.042;14.432;2023-12-20T00:52:02;97977.63;;;5.89;71.48
78717;BME280;68045;50.042;14.432;2023-12-20T00:56:03;97950.84;;;5.87;72.23
78717;BME280;68045;50.042;14.432;2023-12-20T01:00:05;97945.81;;;5.92;73.14
78717;BME280;68045;50.042;14.432;2023-12-20T01:04:06;97938.94;;;5.84;74.62
78717;BME280;68045;50.042;14.432;2023-12-20T01:08:06;97933.94;;;5.83;75.39
78717;BME280;68045;50.042;14.432;2023-12-20T01:12:07;97956.13;;;5.73;76.14
78717;BME280;68045;50.042;14.432;2023-12-20T01:16:12;97941.03;;;5.69;77.05
78717;BME280;68045;50.042;14.432;2023-12-20T01:20:13;97937.81;;;5.67;76.82
78717;BME280;68045;50.042;14.432;2023-12-20T01:24:14;97944.84;;;5.73;77.30
78717;BME280;68045;50.042;14.432;2023-12-20T01:28:15;97922.94;;;5.61;78.06
78717;BME280;68045;50.042;14.432;2023-12-20T01:32:16;97911.22;;;5.63;79.19
78717;BME280;68045;50.042;14.432;2023-12-20T01:36:17;97899.59;;;5.53;79.47
78717;BME280;68045;50.042;14.432;2023-12-20T01:40:18;97897.78;;;5.60;80.22
78717;BME280;68045;50.042;14.432;2023-12-20T01:44:20;97891.31;;;5.56;80.28
78717;BME280;68045;50.042;14.432;2023-12-20T01:48:20;97881.69;;;5.49;81.87
78717;BME280;68045;50.042;14.432;2023-12-20T01:52:22;97862.22;;;5.39;83.11
78717;BME280;68045;50.042;14.432;2023-12-20T01:56:24;97879.53;;;5.33;83.61
78717;BME280;68045;50.042;14.432;2023-12-20T02:00:26;97862.84;;;5.28;84.47
78717;BME280;68045;50.042;14.432;2023-12-20T02:04:28;97857.44;;;5.22;84.34
78717;BME280;68045;50.042;14.432;2023-12-20T02:08:29;97859.63;;;5.19;85.61
78717;BME280;68045;50.042;14.432;2023-12-20T02:12:30;97865.28;;;5.16;86.64
78717;BME280;68045;50.042;14.432;2023-12-20T02:16:31;97860.47;;;5.13;87.09
78717;BME280;68045;50.042;14.432;2023-12-20T02:20:33;97853.63;;;5.05;88.21
78717;BME280;68045;50.042;14.432;2023-12-20T02:24:33;97861.66;;;5.17;87.97
78717;BME280;68045;50.042;14.432;2023-12-20T02:28:34;97858.63;;;5.20;87.70
78717;BME280;68045;50.042;14.432;2023-12-20T02:32:35;97854.22;;;5.14;88.45
78717;BME280;68045;50.042;14.432;2023-12-20T02:36:36;97848.34;;;5.25;88.01
78717;BME280;68045;50.042;14.432;2023-12-20T02:40:37;97849.38;;;5.24;87.62
78717;BME280;68045;50.042;14.432;2023-12-20T02:44:38;97846.16;;;5.22;88.19
78717;BME280;68045;50.042;14.432;2023-12-20T02:48:39;97842.94;;;5.20;89.30
78717;BME280;68045;50.042;14.432;2023-12-20T02:52:40;97843.94;;;5.26;88.21
78717;BME280;68045;50.042;14.432;2023-12-20T02:56:41;97848.34;;;5.25;87.87
78717;BME280;68045;50.042;14.432;2023-12-20T03:00:42;97843.75;;;5.14;88.98
78717;BME280;68045;50.042;14.432;2023-12-20T03:04:43;97848.16;;;5.27;89.03
78717;BME280;68045;50.042;14.432;2023-12-20T03:08:44;97844.34;;;5.22;89.13
78717;BME280;68045;50.042;14.432;2023-12-20T03:12:45;97852.00;;;5.24;89.80
78717;BME280;68045;50.042;14.432;2023-12-20T03:16:49;97843.16;;;5.18;90.72
78717;BME280;68045;50.042;14.432;2023-12-20T03:20:50;97847.56;;;5.18;90.70
78717;BME280;68045;50.042;14.432;2023-12-20T03:24:51;97845.16;;;5.16;91.50
78717;BME280;68045;50.042;14.432;2023-12-20T03:28:52;97852.59;;;5.13;90.96
78717;BME280;68045;50.042;14.432;2023-12-20T03:32:53;97860.25;;;5.14;91.03
78717;BME280;68045;50.042;14.432;2023-12-20T03:36:54;97850.22;;;5.11;91.04
78717;BME280;68045;50.042;14.432;2023-12-20T03:40:54;97848.97;;;5.14;91.28
78717;BME280;68045;50.042;14.432;2023-12-20T03:44:55;97842.78;;;5.15;90.20
78717;BME280;68045;50.042;14.432;2023-12-20T03:48:56;97836.53;;;5.09;90.72
78717;BME280;68045;50.042;14.432;2023-12-20T03:52:57;97838.72;;;5.12;90.29
78717;BME280;68045;50.042;14.432;2023-12-20T03:56:58;97846.38;;;5.14;90.49
78717;BME280;68045;50.042;14.432;2023-12-20T04:00:59;97837.31;;;5.16;91.42
78717;BME280;68045;50.042;14.432;2023-12-20T04:04:59;97839.94;;;5.16;91.30
78717;BME280;68045;50.042;14.432;2023-12-20T04:09:00;97840.34;;;5.13;90.64
78717;BME280;68045;50.042;14.432;2023-12-20T04:13:01;97843.19;;;5.05;91.64
78717;BME280;68045;50.042;14.432;2023-12-20T04:17:03;97842.78;;;5.15;90.85
78717;BME280;68045;50.042;14.432;2023-12-20T04:21:04;97846.19;;;5.09;90.93
78717;BME280;68045;50.042;14.432;2023-12-20T04:25:05;97839.38;;;5.01;91.97
78717;BME280;68045;50.042;14.432;2023-12-20T04:29:06;97844.78;;;5.06;91.59
78717;BME280;68045;50.042;14.432;2023-12-20T04:33:07;97844.00;;;4.99;91.75
78717;BME280;68045;50.042;14.432;2023-12-20T04:37:07;97848.41;;;5.05;90.84
78717;BME280;68045;50.042;14.432;2023-12-20T04:41:08;97847.41;;;5.00;90.98
78717;BME280;68045;50.042;14.432;2023-12-20T04:45:09;97858.28;;;4.96;92.48
78717;BME280;68045;50.042;14.432;2023-12-20T04:49:13;97857.25;;;5.04;91.33
78717;BME280;68045;50.042;14.432;2023-12-20T04:53:14;97850.22;;;4.98;91.68
78717;BME280;68045;50.042;14.432;2023-12-20T04:57:16;97855.47;;;4.98;92.78
78717;BME280;68045;50.042;14.432;2023-12-20T05:01:17;97851.03;;;4.99;92.14
78717;BME280;68045;50.042;14.432;2023-12-20T05:05:18;97854.28;;;4.87;92.64
78717;BME280;68045;50.042;14.432;2023-12-20T05:09:19;97851.47;;;4.89;92.28
78717;BME280;68045;50.042;14.432;2023-12-20T05:13:20;97852.84;;;4.91;93.45
78717;BME280;68045;50.042;14.432;2023-12-20T05:17:21;97853.47;;;4.93;91.65
78717;BME280;68045;50.042;14.432;2023-12-20T05:21:22;97850.88;;;4.93;92.28
78717;BME280;68045;50.042;14.432;2023-12-20T05:25:23;97853.06;;;4.90;92.17
78717;BME280;68045;50.042;14.432;2023-12-20T05:29:24;97850.06;;;4.86;93.03
78717;BME280;68045;50.042;14.432;2023-12-20T05:33:25;97858.91;;;4.85;92.88
78717;BME280;68045;50.042;14.432;2023-12-20T05:37:25;97868.75;;;4.77;93.07
78717;BME280;68045;50.042;14.432;2023-12-20T05:41:26;97868.75;;;4.77;93.02
78717;BME280;68045;50.042;14.432;2023-12-20T05:45:27;97866.94;;;4.77;92.70
78717;BME280;68045;50.042;14.432;2023-12-20T05:49:28;97860.31;;;4.81;92.61
78717;BME280;68045;50.042;14.432;2023-12-20T05:53:29;97860.53;;;4.80;92.28
78717;BME280;68045;50.042;14.432;2023-12-20T05:57:29;97866.94;;;4.77;91.93
78717;BME280;68045;50.042;14.432;2023-12-20T06:01:30;97859.31;;;4.69;92.46
78717;BME280;68045;50.042;14.432;2023-12-20T06:05:31;97870.56;;;4.63;93.09
78717;BME280;68045;50.042;14.432;2023-12-20T06:09:32;97866.97;;;4.71;92.11
78717;BME280;68045;50.042;14.432;2023-12-20T06:13:33;97864.75;;;4.67;92.49
78717;BME280;68045;50.042;14.432;2023-12-20T06:17:34;97865.97;;;4.58;92.33
78717;BME280;68045;50.042;14.432;2023-12-20T06:21:35;97871.38;;;4.63;93.63
78717;BME280;68045;50.042;14.432;2023-12-20T06:25:36;97888.88;;;4.50;93.85
78717;BME280;68045;50.042;14.432;2023-12-20T06:29:37;97876.59;;;4.57;92.55
78717;BME280;68045;50.042;14.432;2023-12-20T06:33:38;97874.63;;;4.59;93.74
78717;BME280;68045;50.042;14.432;2023-12-20T06:37:41;97878.22;;;4.58;94.14
78717;BME280;68045;50.042;14.432;2023-12-20T06:41:45;97882.84;;;4.56;93.42
78717;BME280;68045;50.042;14.432;2023-12-20T06:45:46;97886.66;;;4.53;93.57
78717;BME280;68045;50.042;14.432;2023-12-20T06:49:47;97895.91;;;4.43;93.66
78717;BME280;68045;50.042;14.432;2023-12-20T06:53:47;97902.56;;;4.45;94.43
78717;BME280;68045;50.042;14.432;2023-12-20T06:57:48;97903.94;;;4.41;93.87
78717;BME280;68045;50.042;14.432;2023-12-20T07:01:50;97922.25;;;4.48;94.32
78717;BME280;68045;50.042;14.432;2023-12-20T07:05:51;97926.44;;;4.35;93.84
78717;BME280;68045;50.042;14.432;2023-12-20T07:09:52;97922.41;;;4.33;94.09
78717;BME280;68045;50.042;14.432;2023-12-20T07:13:53;97941.31;;;4.35;93.92
78717;BME280;68045;50.042;14.432;2023-12-20T07:17:54;97958.00;;;4.40;93.60
78717;BME280;68045;50.042;14.432;2023-12-20T07:21:54;97949.38;;;4.40;93.83
78717;BME280;68045;50.042;14.432;2023-12-20T07:25:55;97956.63;;;4.45;93.91
78717;BME280;68045;50.042;14.432;2023-12-20T07:29:56;97956.41;;;4.46;92.41
78717;BME280;68045;50.042;14.432;2023-12-20T07:33:57;97958.81;;;4.48;92.88
78717;BME280;68045;50.042;14.432;2023-12-20T07:37:58;97971.50;;;4.44;92.74
78717;BME280;68045;50.042;14.432;2023-12-20T07:41:59;97978.91;;;4.40;92.36
78717;BME280;68045;50.042;14.432;2023-12-20T07:46:04;97981.94;;;4.57;92.03
78717;BME280;68045;50.042;14.432;2023-12-20T07:50:06;97993.00;;;4.53;92.69
78717;BME280;68045;50.042;14.432;2023-12-20T07:54:06;98000.03;;;4.52;92.10
78717;BME280;68045;50.042;14.432;2023-12-20T07:58:08;97994.41;;;4.55;92.20
78717;BME280;68045;50.042;14.432;2023-12-20T08:02:09;97984.75;;;4.56;90.96
78717;BME280;68045;50.042;14.432;2023-12-20T08:06:10;97992.81;;;4.61;89.98
78717;BME280;68045;50.042;14.432;2023-12-20T08:10:11;97984.16;;;4.54;90.37
78717;BME280;68045;50.042;14.432;2023-12-20T08:14:12;97993.44;;;4.69;90.28
78717;BME280;68045;50.042;14.432;2023-12-20T08:18:13;97984.97;;;4.61;90.50
78717;BME280;68045;50.042;14.432;2023-12-20T08:22:14;97988.19;;;4.63;90.43
78717;BME280;68045;50.042;14.432;2023-12-20T08:26:18;97998.06;;;4.67;89.78
78717;BME280;68045;50.042;14.432;2023-12-20T08:30:20;98001.28;;;4.76;89.99
78717;BME280;68045;50.042;14.432;2023-12-20T08:34:23;98001.50;;;4.75;90.08
78717;BME280;68045;50.042;14.432;2023-12-20T08:38:23;98003.09;;;4.82;89.12
78717;BME280;68045;50.042;14.432;2023-12-20T08:42:24;98007.53;;;4.88;88.85
78717;BME280;68045;50.042;14.432;2023-12-20T08:46:31;98017.19;;;4.81;88.73
78717;BME280;68045;50.042;14.432;2023-12-20T08:50:32;98018.78;;;4.82;88.70
78717;BME280;68045;50.042;14.432;2023-12-20T08:54:33;98017.16;;;4.75;89.31
78717;BME280;68045;50.042;14.432;2023-12-20T08:58:35;98001.06;;;4.78;88.97
78717;BME280;68045;50.042;14.432;2023-12-20T09:02:36;98000.88;;;4.92;88.41
78717;BME280;68045;50.042;14.432;2023-12-20T09:06:38;98009.16;;;4.96;87.65
78717;BME280;68045;50.042;14.432;2023-12-20T09:10:39;98008.75;;;5.06;87.08
78717;BME280;68045;50.042;14.432;2023-12-20T09:14:40;98000.31;;;5.17;86.49
78717;BME280;68045;50.042;14.432;2023-12-20T09:18:42;98002.34;;;5.15;86.41
78717;BME280;68045;50.042;14.432;2023-12-20T09:22:43;98004.53;;;5.24;87.31
78717;BME280;68045;50.042;14.432;2023-12-20T09:26:44;98014.19;;;5.31;86.11
78717;BME280;68045;50.042;14.432;2023-12-20T09:30:45;98006.94;;;5.46;85.73
78717;BME280;68045;50.042;14.432;2023-12-20T09:34:48;98015.97;;;5.57;84.70
78717;BME280;68045;50.042;14.432;2023-12-20T09:38:49;98011.94;;;5.54;85.03
78717;BME280;68045;50.042;14.432;2023-12-20T09:46:55;98010.91;;;5.68;84.75
78717;BME280;68045;50.042;14.432;2023-12-20T09:50:56;98004.63;;;5.89;82.88
78717;BME280;68045;50.042;14.432;2023-12-20T09:54:57;98008.00;;;6.10;82.31
78717;BME280;68045;50.042;14.432;2023-12-20T09:58:59;98002.81;;;6.41;81.91
78717;BME280;68045;50.042;14.432;2023-12-20T10:03:00;98004.97;;;7.39;77.59
78717;BME280;68045;50.042;14.432;2023-12-20T10:07:02;97992.66;;;7.14;76.93
78717;BME280;68045;50.042;14.432;2023-12-20T10:11:05;97984.75;;;6.65;78.76
78717;BME280;68045;50.042;14.432;2023-12-20T10:15:06;97977.19;;;6.50;79.57
78717;BME280;68045;50.042;14.432;2023-12-20T10:19:07;97978.97;;;6.56;79.86
78717;BME280;68045;50.042;14.432;2023-12-20T10:23:08;97982.03;;;6.08;81.87
78717;BME280;68045;50.042;14.432;2023-12-20T10:27:09;97989.47;;;6.04;82.46
78717;BME280;68045;50.042;14.432;2023-12-20T10:31:34;97985.06;;;5.98;82.12
78717;BME280;68045;50.042;14.432;2023-12-20T10:35:36;97980.44;;;6.00;82.25
78717;BME280;68045;50.042;14.432;2023-12-20T10:39:36;97972.63;;;5.81;82.28
78717;BME280;68045;50.042;14.432;2023-12-20T10:43:38;97966.78;;;5.78;82.93
78717;BME280;68045;50.042;14.432;2023-12-20T10:47:40;97972.63;;;5.81;82.29
78717;BME280;68045;50.042;14.432;2023-12-20T10:51:42;97956.47;;;5.97;82.60
78717;BME280;68045;50.042;14.432;2023-12-20T10:55:44;97959.66;;;6.05;81.20
78717;BME280;68045;50.042;14.432;2023-12-20T10:59:46;97936.09;;;5.99;80.38
78717;BME280;68045;50.042;14.432;2023-12-20T11:03:53;97938.69;;;9.24;68.28
78717;BME280;68045;50.042;14.432;2023-12-20T11:08:00;97934.66;;;9.56;63.91
78717;BME280;68045;50.042;14.432;2023-12-20T11:12:13;97934.44;;;9.11;66.24
78717;BME280;68045;50.042;14.432;2023-12-20T11:16:16;97951.28;;;11.89;57.84
78717;BME280;68045;50.042;14.432;2023-12-20T11:20:17;97925.91;;;16.09;45.15
78717;BME280;68045;50.042;14.432;2023-12-20T11:24:22;97932.84;;;18.61;38.38
78717;BME280;68045;50.042;14.432;2023-12-20T11:28:27;97921.06;;;19.14;36.54
78717;BME280;68045;50.042;14.432;2023-12-20T11:32:28;97930.28;;;16.34;41.21
78717;BME280;68045;50.042;14.432;2023-12-20T11:36:32;97916.63;;;9.77;58.90
78717;BME280;68045;50.042;14.432;2023-12-20T11:40:34;97920.84;;;8.19;65.92
78717;BME280;68045;50.042;14.432;2023-12-20T11:44:38;97920.66;;;7.29;69.92
78717;BME280;68045;50.042;14.432;2023-12-20T11:48:40;97912.34;;;7.13;70.65
78717;BME280;68045;50.042;14.432;2023-12-20T11:52:41;97907.41;;;7.42;70.97
78717;BME280;68045;50.042;14.432;2023-12-20T11:56:42;97912.28;;;6.95;72.99
78717;BME280;68045;50.042;14.432;2023-12-20T12:00:43;97900.03;;;6.89;74.52
78717;BME280;68045;50.042;14.432;2023-12-20T12:04:44;97895.25;;;10.02;61.58
78717;BME280;68045;50.042;14.432;2023-12-20T12:08:44;97889.97;;;11.92;55.07
78717;BME280;68045;50.042;14.432;2023-12-20T12:12:45;97888.84;;;9.86;60.00
78717;BME280;68045;50.042;14.432;2023-12-20T12:16:47;97901.25;;;10.14;59.19
78717;BME280;68045;50.042;14.432;2023-12-20T12:20:59;97885.28;;;10.21;58.99
78717;BME280;68045;50.042;14.432;2023-12-20T12:25:10;97870.63;;;11.09;54.91
78717;BME280;68045;50.042;14.432;2023-12-20T12:29:13;97877.53;;;10.76;54.81
78717;BME280;68045;50.042;14.432;2023-12-20T12:33:14;97868.78;;;11.09;53.84
78717;BME280;68045;50.042;14.432;2023-12-20T12:37:15;97839.56;;;11.16;51.99
78717;BME280;68045;50.042;14.432;2023-12-20T12:41:16;97856.50;;;11.20;53.94
78717;BME280;68045;50.042;14.432;2023-12-20T12:45:17;97841.25;;;11.05;52.13
78717;BME280;68045;50.042;14.432;2023-12-20T12:49:18;97862.41;;;10.55;52.95
78717;BME280;68045;50.042;14.432;2023-12-20T12:53:19;97851.72;;;9.59;56.31
78717;BME280;68045;50.042;14.432;2023-12-20T12:57:20;97841.50;;;8.87;58.39
78717;BME280;68045;50.042;14.432;2023-12-20T13:01:21;97853.78;;;9.57;58.22
78717;BME280;68045;50.042;14.432;2023-12-20T13:05:22;97852.44;;;10.73;54.22
78717;BME280;68045;50.042;14.432;2023-12-20T13:09:23;97849.47;;;10.87;53.67
78717;BME280;68045;50.042;14.432;2023-12-20T13:13:24;97850.34;;;9.56;54.17
78717;BME280;68045;50.042;14.432;2023-12-20T13:17:24;97826.72;;;8.39;58.59
78717;BME280;68045;50.042;14.432;2023-12-20T13:21:25;97837.34;;;8.44;58.62
78717;BME280;68045;50.042;14.432;2023-12-20T13:25:26;97840.09;;;8.38;58.27
78717;BME280;68045;50.042;14.432;2023-12-20T13:29:27;97835.22;;;8.53;58.77
78717;BME280;68045;50.042;14.432;2023-12-20T13:33:28;97846.16;;;9.72;55.23
78717;BME280;68045;50.042;14.432;2023-12-20T13:37:29;97852.56;;;10.05;52.99
78717;BME280;68045;50.042;14.432;2023-12-20T13:41:30;97841.34;;;9.81;53.47
78717;BME280;68045;50.042;14.432;2023-12-20T13:45:31;97843.63;;;9.37;54.99
78717;BME280;68045;50.042;14.432;2023-12-20T13:49:32;97843.47;;;8.68;56.79
78717;BME280;68045;50.042;14.432;2023-12-20T13:53:33;97862.06;;;8.67;56.53
78717;BME280;68045;50.042;14.432;2023-12-20T13:57:35;97856.41;;;8.82;57.19
78717;BME280;68045;50.042;14.432;2023-12-20T14:01:38;97861.53;;;8.76;57.00
78717;BME280;68045;50.042;14.432;2023-12-20T14:05:39;97855.59;;;8.81;56.82
78717;BME280;68045;50.042;14.432;2023-12-20T14:09:40;97858.22;;;8.69;56.51
78717;BME280;68045;50.042;14.432;2023-12-20T14:13:46;97853.03;;;8.39;57.51
78717;BME280;68045;50.042;14.432;2023-12-20T14:17:46;97854.44;;;7.63;58.96
78717;BME280;68045;50.042;14.432;2023-12-20T14:21:47;97849.19;;;7.08;60.48
78717;BME280;68045;50.042;14.432;2023-12-20T14:25:49;97851.16;;;7.31;60.89
78717;BME280;68045;50.042;14.432;2023-12-20T14:29:50;97855.63;;;7.12;61.16
78717;BME280;68045;50.042;14.432;2023-12-20T14:33:51;97851.16;;;6.95;61.64
78717;BME280;68045;50.042;14.432;2023-12-20T14:37:55;97850.28;;;7.01;62.12
78717;BME280;68045;50.042;14.432;2023-12-20T14:41:56;97856.16;;;6.78;62.86
78717;BME280;68045;50.042;14.432;2023-12-20T14:45:57;97839.44;;;6.47;62.76
78717;BME280;68045;50.042;14.432;2023-12-20T14:49:58;97853.56;;;6.21;63.70
78717;BME280;68045;50.042;14.432;2023-12-20T14:54:00;97849.19;;;6.15;64.17
78717;BME280;68045;50.042;14.432;2023-12-20T14:58:01;97843.63;;;5.98;64.49
78717;BME280;68045;50.042;14.432;2023-12-20T15:02:02;97847.16;;;5.79;65.21
78717;BME280;68045;50.042;14.432;2023-12-20T15:06:05;97849.63;;;5.61;66.86
78717;BME280;68045;50.042;14.432;2023-12-20T15:10:07;97836.38;;;5.49;67.72
78717;BME280;68045;50.042;14.432;2023-12-20T15:14:08;97821.75;;;5.35;68.00
78717;BME280;68045;50.042;14.432;2023-12-20T15:18:09;97830.22;;;5.37;68.82
78717;BME280;68045;50.042;14.432;2023-12-20T15:22:11;97824.19;;;5.30;68.99
78717;BME280;68045;50.042;14.432;2023-12-20T15:26:12;97835.28;;;5.18;69.13
78717;BME280;68045;50.042;14.432;2023-12-20T15:30:13;97803.16;;;5.05;70.15
78717;BME280;68045;50.042;14.432;2023-12-20T15:34:15;97801.75;;;5.02;70.69
78717;BME280;68045;50.042;14.432;2023-12-20T15:38:15;97812.44;;;5.01;71.13
78717;BME280;68045;50.042;14.432;2023-12-20T15:42:17;97808.81;;;4.88;71.02
78717;BME280;68045;50.042;14.432;2023-12-20T15:46:18;97796.78;;;4.81;71.95
78717;BME280;68045;50.042;14.432;2023-12-20T15:50:19;97804.84;;;4.79;72.10
78717;BME280;68045;50.042;14.432;2023-12-20T15:54:20;97809.44;;;4.77;72.47
78717;BME280;68045;50.042;14.432;2023-12-20T15:58:22;97813.66;;;4.78;72.32
78717;BME280;68045;50.042;14.432;2023-12-20T16:02:23;97821.31;;;4.73;72.73
78717;BME280;68045;50.042;14.432;2023-12-20T16:06:24;97804.44;;;4.69;72.69
78717;BME280;68045;50.042;14.432;2023-12-20T16:10:25;97812.88;;;4.71;72.95
78717;BME280;68045;50.042;14.432;2023-12-20T16:14:26;97821.34;;;4.66;73.07
78717;BME280;68045;50.042;14.432;2023-12-20T16:18:30;97829.56;;;4.70;73.39
78717;BME280;68045;50.042;14.432;2023-12-20T16:22:31;97841.03;;;4.69;72.34
78717;BME280;68045;50.042;14.432;2023-12-20T16:26:32;97851.06;;;4.72;72.74
78717;BME280;68045;50.042;14.432;2023-12-20T16:30:33;97836.59;;;4.76;72.94
78717;BME280;68045;50.042;14.432;2023-12-20T16:34:34;97845.66;;;4.80;72.85
78717;BME280;68045;50.042;14.432;2023-12-20T16:38:35;97835.38;;;4.85;72.27
78717;BME280;68045;50.042;14.432;2023-12-20T16:42:36;97835.19;;;4.87;72.46
78717;BME280;68045;50.042;14.432;2023-12-20T16:46:37;97843.41;;;4.90;72.32
78717;BME280;68045;50.042;14.432;2023-12-20T16:50:38;97850.44;;;4.96;71.92
78717;BME280;68045;50.042;14.432;2023-12-20T16:54:39;97847.25;;;4.94;72.38
78717;BME280;68045;50.042;14.432;2023-12-20T16:58:40;97851.66;;;4.94;72.91
78717;BME280;68045;50.042;14.432;2023-12-20T17:02:41;97855.88;;;4.88;72.62
78717;BME280;68045;50.042;14.432;2023-12-20T17:06:42;97848.84;;;4.82;73.42
78717;BME280;68045;50.042;14.432;2023-12-20T17:10:43;97832.38;;;4.68;73.57
78717;BME280;68045;50.042;14.432;2023-12-20T17:14:44;97835.41;;;4.65;74.38
78717;BME280;68045;50.042;14.432;2023-12-20T17:18:45;97834.59;;;4.65;74.96
78717;BME280;68045;50.042;14.432;2023-12-20T17:22:49;97842.84;;;4.55;74.85
78717;BME280;68045;50.042;14.432;2023-12-20T17:26:50;97822.72;;;4.62;75.54
78717;BME280;68045;50.042;14.432;2023-12-20T17:30:51;97827.97;;;4.62;75.47
78717;BME280;68045;50.042;14.432;2023-12-20T17:34:52;97818.09;;;4.64;75.45
78717;BME280;68045;50.042;14.432;2023-12-20T17:38:53;97814.88;;;4.62;75.65
78717;BME280;68045;50.042;14.432;2023-12-20T17:42:54;97823.75;;;4.61;75.60
78717;BME280;68045;50.042;14.432;2023-12-20T17:46:56;97807.84;;;4.56;75.73
78717;BME280;68045;50.042;14.432;2023-12-20T17:50:57;97821.94;;;4.62;76.66
78717;BME280;68045;50.042;14.432;2023-12-20T17:54:59;97829.78;;;4.62;75.90
78717;BME280;68045;50.042;14.432;2023-12-20T17:59:00;97836.59;;;4.63;76.78
78717;BME280;68045;50.042;14.432;2023-12-20T18:03:02;97842.63;;;4.70;76.79
78717;BME280;68045;50.042;14.432;2023-12-20T18:07:03;97853.88;;;4.77;75.89
78717;BME280;68045;50.042;14.432;2023-12-20T18:11:04;97850.88;;;4.80;75.89
78717;BME280;68045;50.042;14.432;2023-12-20T18:15:06;97853.66;;;4.85;75.93
78717;BME280;68045;50.042;14.432;2023-12-20T18:19:07;97853.28;;;4.82;76.40
78717;BME280;68045;50.042;14.432;2023-12-20T18:23:07;97831.94;;;4.85;75.86
78717;BME280;68045;50.042;14.432;2023-12-20T18:27:09;97831.94;;;4.85;76.16
78717;BME280;68045;50.042;14.432;2023-12-20T18:31:10;97832.16;;;4.90;75.51
78717;BME280;68045;50.042;14.432;2023-12-20T18:35:11;97834.56;;;4.85;76.04
78717;BME280;68045;50.042;14.432;2023-12-20T18:39:12;97836.56;;;4.96;75.85
78717;BME280;68045;50.042;14.432;2023-12-20T18:43:16;97837.56;;;5.02;75.33
78717;BME280;68045;50.042;14.432;2023-12-20T18:47:17;97839.97;;;4.96;75.81
78717;BME280;68045;50.042;14.432;2023-12-20T18:51:19;97854.22;;;5.07;75.46
78717;BME280;68045;50.042;14.432;2023-12-20T18:55:20;97848.41;;;5.12;75.09
78717;BME280;68045;50.042;14.432;2023-12-20T18:59:21;97831.69;;;5.13;74.73
78717;BME280;68045;50.042;14.432;2023-12-20T19:03:22;97847.00;;;5.16;74.55
78717;BME280;68045;50.042;14.432;2023-12-20T19:07:23;97837.53;;;5.21;74.49
78717;BME280;68045;50.042;14.432;2023-12-20T19:11:24;97831.91;;;5.11;75.02
78717;BME280;68045;50.042;14.432;2023-12-20T19:15:25;97848.59;;;5.10;75.07
78717;BME280;68045;50.042;14.432;2023-12-20T19:19:25;97834.28;;;5.19;74.99
78717;BME280;68045;50.042;14.432;2023-12-20T19:23:27;97850.59;;;5.21;74.22
78717;BME280;68045;50.042;14.432;2023-12-20T19:27:28;97833.69;;;5.24;74.52
78717;BME280;68045;50.042;14.432;2023-12-20T19:31:29;97852.78;;;5.31;73.56
78717;BME280;68045;50.042;14.432;2023-12-20T19:35:30;97848.13;;;5.33;73.55
78717;BME280;68045;50.042;14.432;2023-12-20T19:39:31;97858.81;;;5.32;74.27
78717;BME280;68045;50.042;14.432;2023-12-20T19:43:32;97832.44;;;5.33;75.06
78717;BME280;68045;50.042;14.432;2023-12-20T19:47:32;97836.66;;;5.34;74.32
78717;BME280;68045;50.042;14.432;2023-12-20T19:51:33;97837.84;;;5.38;75.31
78717;BME280;68045;50.042;14.432;2023-12-20T19:55:35;97823.56;;;5.34;74.60
78717;BME280;68045;50.042;14.432;2023-12-20T19:59:36;97828.22;;;5.32;74.72
78717;BME280;68045;50.042;14.432;2023-12-20T20:03:36;97826.03;;;5.29;76.10
78717;BME280;68045;50.042;14.432;2023-12-20T20:07:37;97834.06;;;5.28;76.18
78717;BME280;68045;50.042;14.432;2023-12-20T20:11:38;97821.16;;;5.33;76.27
78717;BME280;68045;50.042;14.432;2023-12-20T20:15:39;97818.16;;;5.29;76.11
78717;BME280;68045;50.042;14.432;2023-12-20T20:19:40;97805.13;;;5.22;76.26
78717;BME280;68045;50.042;14.432;2023-12-20T20:23:41;97802.09;;;5.19;76.09
78717;BME280;68045;50.042;14.432;2023-12-20T20:27:42;97794.81;;;5.21;76.27
78717;BME280;68045;50.042;14.432;2023-12-20T20:31:43;97806.72;;;5.17;76.06
78717;BME280;68045;50.042;14.432;2023-12-20T20:35:44;97786.97;;;5.21;76.34
78717;BME280;68045;50.042;14.432;2023-12-20T20:39:45;97803.28;;;5.23;75.21
78717;BME280;68045;50.042;14.432;2023-12-20T20:43:46;97784.38;;;5.21;75.83
78717;BME280;68045;50.042;14.432;2023-12-20T20:47:47;97802.50;;;5.22;75.94
78717;BME280;68045;50.042;14.432;2023-12-20T20:51:47;97799.66;;;5.24;75.93
78717;BME280;68045;50.042;14.432;2023-12-20T20:55:49;97795.66;;;5.21;76.11
78717;BME280;68045;50.042;14.432;2023-12-20T20:59:50;97790.44;;;5.21;77.21
78717;BME280;68045;50.042;14.432;2023-12-20T21:03:51;97793.44;;;5.18;76.95
78717;BME280;68045;50.042;14.432;2023-12-20T21:07:53;97782.41;;;5.10;77.79
78717;BME280;68045;50.042;14.432;2023-12-20T21:11:55;97820.84;;;5.09;78.40
78717;BME280;68045;50.042;14.432;2023-12-20T21:15:56;97777.41;;;5.02;78.11
78717;BME280;68045;50.042;14.432;2023-12-20T21:19:57;97764.75;;;4.99;78.08
78717;BME280;68045;50.042;14.432;2023-12-20T21:23:58;97770.59;;;5.01;78.54